sensor_id;sensor_type;location;lat;lon;timestamp;P1;durP1;ratioP1;P2;durP2;ratioP2
8885;SDS011;4479;51.162;13.906;2022-07-17T00:08:39;32.50;;;18.30;;
8885;SDS011;4479;51.162;13.906;2022-07-17T00:18:44;37.47;;;20.77;;
8885;SDS011;4479;51.162;13.906;2022-07-17T00:28:48;4.03;;;2.63;;
8885;SDS011;4479;51.162;13.906;2022-07-17T00:38:57;7.90;;;4.13;;
8885;SDS011;4479;51.162;13.906;2022-07-17T02:22:03;1.83;;;1.17;;
8885;SDS011;4479;51.162;13.906;2022-07-17T02:32:06;3.43;;;0.90;;
8885;SDS011;4479;51.162;13.906;2022-07-17T02:42:12;2.53;;;1.13;;
8885;SDS011;4479;51.162;13.906;2022-07-17T02:52:16;1.83;;;0.80;;
8885;SDS011;4479;51.162;13.906;2022-07-17T03:02:21;1.50;;;0.80;;
8885;SDS011;4479;51.162;13.906;2022-07-17T03:12:25;1.43;;;1.00;;
8885;SDS011;4479;51.162;13.906;2022-07-17T03:22:30;1.37;;;0.80;;
8885;SDS011;4479;51.162;13.906;2022-07-17T03:32:35;1.70;;;0.90;;
8885;SDS011;4479;51.162;13.906;2022-07-17T03:42:40;1.90;;;0.80;;
8885;SDS011;4479;51.162;13.906;2022-07-17T03:52:44;1.50;;;0.97;;
8885;SDS011;4479;51.162;13.906;2022-07-17T04:02:49;1.40;;;0.80;;
8885;SDS011;4479;51.162;13.906;2022-07-17T04:12:56;1.90;;;0.90;;
8885;SDS011;4479;51.162;13.906;2022-07-17T04:23:01;1.80;;;0.90;;
8885;SDS011;4479;51.162;13.906;2022-07-17T04:33:05;1.73;;;0.80;;
8885;SDS011;4479;51.162;13.906;2022-07-17T04:43:11;2.27;;;1.00;;
8885;SDS011;4479;51.162;13.906;2022-07-17T04:53:14;1.80;;;0.90;;
8885;SDS011;4479;51.162;13.906;2022-07-17T05:03:19;1.67;;;0.90;;
8885;SDS011;4479;51.162;13.906;2022-07-17T05:13:23;1.40;;;0.80;;
8885;SDS011;4479;51.162;13.906;2022-07-17T05:23:28;1.77;;;1.00;;
8885;SDS011;4479;51.162;13.906;2022-07-17T05:33:33;1.53;;;0.83;;
8885;SDS011;4479;51.162;13.906;2022-07-17T05:43:38;1.13;;;0.70;;
8885;SDS011;4479;51.162;13.906;2022-07-17T05:53:41;2.70;;;1.23;;
8885;SDS011;4479;51.162;13.906;2022-07-17T06:03:46;2.03;;;0.90;;
8885;SDS011;4479;51.162;13.906;2022-07-17T06:13:50;2.23;;;0.80;;
8885;SDS011;4479;51.162;13.906;2022-07-17T06:23:55;1.87;;;0.70;;
8885;SDS011;4479;51.162;13.906;2022-07-17T06:33:59;2.33;;;0.83;;
8885;SDS011;4479;51.162;13.906;2022-07-17T06:44:04;1.70;;;0.60;;
8885;SDS011;4479;51.162;13.906;2022-07-17T06:54:07;2.40;;;1.00;;
8885;SDS011;4479;51.162;13.906;2022-07-17T07:04:13;2.23;;;0.73;;
8885;SDS011;4479;51.162;13.906;2022-07-17T07:14:17;2.90;;;0.70;;
8885;SDS011;4479;51.162;13.906;2022-07-17T07:24:22;1.47;;;0.77;;
8885;SDS011;4479;51.162;13.906;2022-07-17T07:34:26;1.23;;;0.70;;
8885;SDS011;4479;51.162;13.906;2022-07-17T07:44:31;1.13;;;0.67;;
8885;SDS011;4479;51.162;13.906;2022-07-17T07:54:36;1.53;;;0.73;;
8885;SDS011;4479;51.162;13.906;2022-07-17T08:04:41;1.10;;;0.60;;
8885;SDS011;4479;51.162;13.906;2022-07-17T08:14:50;1.20;;;0.70;;
8885;SDS011;4479;51.162;13.906;2022-07-17T08:24:55;4.07;;;0.83;;
8885;SDS011;4479;51.162;13.906;2022-07-17T08:34:59;0.97;;;0.70;;
8885;SDS011;4479;51.162;13.906;2022-07-17T08:45:05;1.43;;;0.80;;
8885;SDS011;4479;51.162;13.906;2022-07-17T08:55:09;4.23;;;0.90;;
8885;SDS011;4479;51.162;13.906;2022-07-17T09:05:20;1.90;;;0.80;;
8885;SDS011;4479;51.162;13.906;2022-07-17T09:15:24;1.47;;;0.80;;
8885;SDS011;4479;51.162;13.906;2022-07-17T09:25:33;1.20;;;0.60;;
8885;SDS011;4479;51.162;13.906;2022-07-17T09:35:44;1.27;;;0.50;;
8885;SDS011;4479;51.162;13.906;2022-07-17T09:45:50;2.20;;;0.90;;
8885;SDS011;4479;51.162;13.906;2022-07-17T09:55:53;1.93;;;0.90;;
8885;SDS011;4479;51.162;13.906;2022-07-17T10:05:59;3.40;;;0.90;;
8885;SDS011;4479;51.162;13.906;2022-07-17T10:16:04;1.60;;;0.67;;
8885;SDS011;4479;51.162;13.906;2022-07-17T10:26:09;1.33;;;0.80;;
8885;SDS011;4479;51.162;13.906;2022-07-17T10:36:13;1.63;;;0.80;;
8885;SDS011;4479;51.162;13.906;2022-07-17T10:46:20;1.80;;;0.80;;
8885;SDS011;4479;51.162;13.906;2022-07-17T10:56:30;1.07;;;0.70;;
8885;SDS011;4479;51.162;13.906;2022-07-17T11:06:37;3.70;;;0.70;;
8885;SDS011;4479;51.162;13.906;2022-07-17T11:16:45;10.53;;;1.40;;
8885;SDS011;4479;51.162;13.906;2022-07-17T11:26:50;2.47;;;0.77;;
8885;SDS011;4479;51.162;13.906;2022-07-17T11:36:58;1.37;;;0.80;;
8885;SDS011;4479;51.162;13.906;2022-07-17T11:47:03;1.70;;;0.90;;
8885;SDS011;4479;51.162;13.906;2022-07-17T13:50:21;1.67;;;0.50;;
8885;SDS011;4479;51.162;13.906;2022-07-17T14:00:26;1.33;;;0.53;;
8885;SDS011;4479;51.162;13.906;2022-07-17T14:10:33;2.23;;;0.60;;
8885;SDS011;4479;51.162;13.906;2022-07-17T15:40:04;2.50;;;0.80;;
8885;SDS011;4479;51.162;13.906;2022-07-17T15:50:08;1.57;;;0.57;;
8885;SDS011;4479;51.162;13.906;2022-07-17T16:00:14;1.27;;;0.80;;
8885;SDS011;4479;51.162;13.906;2022-07-17T16:10:17;1.00;;;0.77;;
8885;SDS011;4479;51.162;13.906;2022-07-17T16:20:23;2.80;;;0.60;;
8885;SDS011;4479;51.162;13.906;2022-07-17T16:30:27;1.00;;;0.47;;
8885;SDS011;4479;51.162;13.906;2022-07-17T16:40:32;1.73;;;0.50;;
8885;SDS011;4479;51.162;13.906;2022-07-17T16:50:37;2.33;;;0.70;;
8885;SDS011;4479;51.162;13.906;2022-07-17T17:00:46;3.80;;;0.60;;
8885;SDS011;4479;51.162;13.906;2022-07-17T17:10:49;1.13;;;0.60;;
8885;SDS011;4479;51.162;13.906;2022-07-17T17:20:55;2.03;;;0.60;;
8885;SDS011;4479;51.162;13.906;2022-07-17T17:30:58;2.10;;;0.93;;
8885;SDS011;4479;51.162;13.906;2022-07-17T17:41:04;1.37;;;0.80;;
8885;SDS011;4479;51.162;13.906;2022-07-17T17:51:08;1.67;;;0.70;;
8885;SDS011;4479;51.162;13.906;2022-07-17T18:01:13;2.33;;;0.70;;
8885;SDS011;4479;51.162;13.906;2022-07-17T18:11:16;1.33;;;0.63;;
8885;SDS011;4479;51.162;13.906;2022-07-17T18:21:21;0.60;;;0.53;;
8885;SDS011;4479;51.162;13.906;2022-07-17T18:31:24;0.67;;;0.50;;
8885;SDS011;4479;51.162;13.906;2022-07-17T18:41:29;0.80;;;0.60;;
8885;SDS011;4479;51.162;13.906;2022-07-17T18:51:32;0.90;;;0.63;;
8885;SDS011;4479;51.162;13.906;2022-07-17T19:01:37;1.37;;;0.80;;
8885;SDS011;4479;51.162;13.906;2022-07-17T19:11:42;1.10;;;0.70;;
8885;SDS011;4479;51.162;13.906;2022-07-17T19:21:48;0.53;;;0.50;;
8885;SDS011;4479;51.162;13.906;2022-07-17T19:31:52;1.03;;;0.60;;
8885;SDS011;4479;51.162;13.906;2022-07-17T19:41:58;1.03;;;0.53;;
8885;SDS011;4479;51.162;13.906;2022-07-17T19:52:01;1.30;;;0.60;;
8885;SDS011;4479;51.162;13.906;2022-07-17T22:09:15;1.33;;;0.90;;
8885;SDS011;4479;51.162;13.906;2022-07-17T22:19:19;1.37;;;0.87;;
8885;SDS011;4479;51.162;13.906;2022-07-17T22:29:24;2.37;;;1.10;;
8885;SDS011;4479;51.162;13.906;2022-07-17T22:39:28;1.47;;;0.90;;
8885;SDS011;4479;51.162;13.906;2022-07-17T22:49:34;1.70;;;1.00;;
8885;SDS011;4479;51.162;13.906;2022-07-17T22:59:38;1.67;;;1.00;;
8885;SDS011;4479;51.162;13.906;2022-07-17T23:09:44;3.47;;;1.00;;
8885;SDS011;4479;51.162;13.906;2022-07-17T23:19:49;2.33;;;1.30;;
8885;SDS011;4479;51.162;13.906;2022-07-17T23:29:54;1.77;;;0.93;;
8885;SDS011;4479;51.162;13.906;2022-07-17T23:39:57;2.43;;;1.03;;
8885;SDS011;4479;51.162;13.906;2022-07-17T23:50:03;1.80;;;1.10;;
